Time;durP1;ratioP1;P1;durP2;ratioP2;P2;SDS_P1;SDS_P2;PMS_P1;PMS_P2;Temp;Humidity;BMP_temperature;BMP_pressure;BME280_temperature;BME280_humidity;BME280_pressure;Samples;Min_cycle;Max_cycle;Signal;HPM_P1;HPM_P2
2023/05/22 00:00:12;;;;;;;38.03;31.83;;;;;;;;;;5051531;28;20633;-64
2023/05/22 00:02:41;;;;;;;36.97;30.10;;;;;;;;;;5051231;28;20210;-64
2023/05/22 00:05:06;;;;;;;38.28;30.77;;;;;;;;;;5051476;28;20211;-65
2023/05/22 00:07:32;;;;;;;37.75;30.40;;;;;;;;;;5051843;28;20219;-64
2023/05/22 00:09:57;;;;;;;35.15;30.45;;;;;;;;;;5050815;28;20210;-65
2023/05/22 00:12:22;;;;;;;40.35;32.03;;;;;;;;;;5051069;28;20273;-64
2023/05/22 00:14:47;;;;;;;37.22;32.97;;;;;;;;;;5051407;28;20678;-64
2023/05/22 00:17:13;;;;;;;42.50;32.88;;;;;;;;;;5050450;28;20207;-65
2023/05/22 00:19:39;;;;;;;41.42;32.35;;;;;;;;;;5051250;28;20227;-65
2023/05/22 00:22:04;;;;;;;43.13;32.85;;;;;;;;;;5051280;28;20294;-64
2023/05/22 00:24:30;;;;;;;43.75;33.97;;;;;;;;;;5050548;28;20712;-65
2023/05/22 00:26:55;;;;;;;40.40;32.30;;;;;;;;;;5051593;28;20219;-65
2023/05/22 00:29:21;;;;;;;42.53;32.58;;;;;;;;;;5050757;28;20264;-65
2023/05/22 00:31:46;;;;;;;40.53;33.35;;;;;;;;;;5050677;28;20727;-65
2023/05/22 00:34:11;;;;;;;37.05;32.47;;;;;;;;;;5050938;28;20215;-64
2023/05/22 00:36:36;;;;;;;42.95;32.20;;;;;;;;;;5051348;28;20208;-65
2023/05/22 00:39:02;;;;;;;37.60;29.50;;;;;;;;;;5049467;28;20573;-64
2023/05/22 00:41:27;;;;;;;40.67;32.33;;;;;;;;;;5051236;28;20219;-65
2023/05/22 00:43:52;;;;;;;41.45;33.78;;;;;;;;;;5050995;28;20569;-65
2023/05/22 00:46:21;;;;;;;41.05;32.17;;;;;;;;;;5050156;28;20353;-65
2023/05/22 00:48:47;;;;;;;44.38;35.53;;;;;;;;;;5051032;28;20214;-65
2023/05/22 00:51:13;;;;;;;42.10;33.35;;;;;;;;;;5050368;28;20255;-64
2023/05/22 00:53:38;;;;;;;43.30;34.85;;;;;;;;;;5048860;28;20292;-65
2023/05/22 00:56:03;;;;;;;40.60;33.65;;;;;;;;;;5048869;28;20740;-64
2023/05/22 00:58:29;;;;;;;40.17;32.35;;;;;;;;;;5049461;28;20214;-64
2023/05/22 01:00:54;;;;;;;42.92;33.72;;;;;;;;;;5049831;28;20211;-64
2023/05/22 01:03:24;;;;;;;41.90;34.65;;;;;;;;;;5050179;28;21324;-64
2023/05/22 01:05:50;;;;;;;38.10;31.85;;;;;;;;;;5050020;28;20221;-64
2023/05/22 01:08:15;;;;;;;41.78;33.72;;;;;;;;;;5050418;28;20298;-64
2023/05/22 01:10:41;;;;;;;42.15;34.17;;;;;;;;;;5050339;28;20250;-64
2023/05/22 01:13:12;;;;;;;45.33;35.65;;;;;;;;;;5049544;28;20257;-64
2023/05/22 01:15:42;;;;;;;41.22;33.08;;;;;;;;;;5049891;28;20857;-64
2023/05/22 01:18:11;;;;;;;43.17;34.00;;;;;;;;;;5049864;28;20202;-64
2023/05/22 01:20:42;;;;;;;43.38;34.35;;;;;;;;;;5049577;28;20573;-65
2023/05/22 01:23:08;;;;;;;41.17;32.38;;;;;;;;;;5048887;28;20284;-64
2023/05/22 01:25:52;;;;;;;39.97;32.58;;;;;;;;;;5050202;28;20612;-64
2023/05/22 01:28:26;;;;;;;40.53;32.63;;;;;;;;;;5049125;28;20260;-64
2023/05/22 01:30:54;;;;;;;41.00;32.83;;;;;;;;;;5049953;28;20752;-65
2023/05/22 01:33:20;;;;;;;39.60;32.60;;;;;;;;;;5049907;28;20229;-65
2023/05/22 01:35:46;;;;;;;39.58;33.25;;;;;;;;;;5049609;28;20702;-65
2023/05/22 01:38:12;;;;;;;41.70;34.53;;;;;;;;;;5048617;28;20649;-65
2023/05/22 01:40:37;;;;;;;38.78;32.35;;;;;;;;;;5048703;28;20230;-65
2023/05/22 01:43:02;;;;;;;38.08;32.25;;;;;;;;;;5047820;28;20292;-64
2023/05/22 01:45:30;;;;;;;39.75;33.25;;;;;;;;;;5049874;28;20243;-65
2023/05/22 01:47:55;;;;;;;41.70;33.67;;;;;;;;;;5050078;28;20272;-65
2023/05/22 01:50:21;;;;;;;38.78;31.48;;;;;;;;;;5048788;28;20223;-65
2023/05/22 01:52:46;;;;;;;36.88;31.50;;;;;;;;;;5048777;28;20570;-65
2023/05/22 01:55:12;;;;;;;37.47;31.17;;;;;;;;;;5048871;28;20219;-64
2023/05/22 01:57:40;;;;;;;37.20;30.83;;;;;;;;;;5049930;28;20310;-65
2023/05/22 02:00:09;;;;;;;35.92;31.05;;;;;;;;;;5048268;28;20207;-64
2023/05/22 02:02:35;;;;;;;35.25;30.15;;;;;;;;;;5048040;28;20215;-65
2023/05/22 02:05:00;;;;;;;35.72;30.15;;;;;;;;;;5049821;28;20211;-65
2023/05/22 02:07:25;;;;;;;34.95;30.02;;;;;;;;;;5050670;28;20428;-65
2023/05/22 02:09:50;;;;;;;35.60;30.52;;;;;;;;;;5052032;28;20702;-65
2023/05/22 02:12:16;;;;;;;35.75;29.58;;;;;;;;;;5052123;28;20310;-65
2023/05/22 02:14:41;;;;;;;35.33;29.92;;;;;;;;;;5053712;28;20218;-65
2023/05/22 02:17:07;;;;;;;35.85;29.92;;;;;;;;;;5052553;28;20751;-64
2023/05/22 02:19:33;;;;;;;34.67;29.92;;;;;;;;;;5053656;28;20231;-65
2023/05/22 02:21:59;;;;;;;35.25;30.15;;;;;;;;;;5053728;28;20211;-65
2023/05/22 02:24:24;;;;;;;33.83;29.05;;;;;;;;;;5052848;28;20272;-65
2023/05/22 02:26:50;;;;;;;35.20;29.10;;;;;;;;;;5053564;28;20741;-65
2023/05/22 02:29:15;;;;;;;34.78;29.35;;;;;;;;;;5053081;28;20214;-65
2023/05/22 02:31:40;;;;;;;33.30;29.20;;;;;;;;;;5052605;28;20231;-65
2023/05/22 02:34:06;;;;;;;39.67;31.75;;;;;;;;;;5053163;28;20242;-65
2023/05/22 02:36:31;;;;;;;37.30;30.00;;;;;;;;;;5053566;28;20686;-65
2023/05/22 02:38:57;;;;;;;33.20;29.38;;;;;;;;;;5052877;28;20238;-65
2023/05/22 02:41:22;;;;;;;32.75;29.17;;;;;;;;;;5052624;28;20211;-65
2023/05/22 02:43:47;;;;;;;33.55;29.88;;;;;;;;;;5053351;28;20233;-65
2023/05/22 02:46:13;;;;;;;37.03;30.60;;;;;;;;;;5052048;28;20234;-65
2023/05/22 02:48:38;;;;;;;34.85;29.52;;;;;;;;;;5053278;28;20208;-65
2023/05/22 02:51:03;;;;;;;38.03;30.20;;;;;;;;;;5052799;28;20231;-64
2023/05/22 02:53:28;;;;;;;33.60;29.63;;;;;;;;;;5052508;28;20223;-65
2023/05/22 02:55:57;;;;;;;36.25;30.27;;;;;;;;;;5053319;28;20203;-64
2023/05/22 02:58:24;;;;;;;31.08;27.77;;;;;;;;;;5051898;28;20211;-65
2023/05/22 03:00:51;;;;;;;33.03;29.48;;;;;;;;;;5052942;28;20211;-65
2023/05/22 03:03:16;;;;;;;31.63;27.90;;;;;;;;;;5052494;28;20576;-65
2023/05/22 03:05:42;;;;;;;31.15;27.80;;;;;;;;;;5052394;28;20223;-65
2023/05/22 03:08:07;;;;;;;33.60;29.00;;;;;;;;;;5052478;28;20207;-64
2023/05/22 03:10:32;;;;;;;36.92;29.83;;;;;;;;;;5052868;28;20215;-65
2023/05/22 03:12:58;;;;;;;34.13;29.80;;;;;;;;;;5051922;28;20215;-65
2023/05/22 03:15:23;;;;;;;32.47;27.90;;;;;;;;;;5052256;28;20211;-64
2023/05/22 03:17:48;;;;;;;33.15;28.45;;;;;;;;;;5052174;28;20214;-65
2023/05/22 03:20:16;;;;;;;33.17;29.58;;;;;;;;;;5051514;28;20707;-65
2023/05/22 03:22:42;;;;;;;34.50;28.60;;;;;;;;;;5052694;28;20294;-65
2023/05/22 03:25:08;;;;;;;34.92;28.38;;;;;;;;;;5052345;28;20647;-64
2023/05/22 03:27:33;;;;;;;33.80;28.92;;;;;;;;;;5051625;28;20213;-65
2023/05/22 03:29:58;;;;;;;34.05;27.77;;;;;;;;;;5052391;28;20246;-65
2023/05/22 03:32:24;;;;;;;32.90;29.30;;;;;;;;;;5051875;28;20250;-65
2023/05/22 03:34:49;;;;;;;34.20;28.60;;;;;;;;;;5051798;28;20276;-65
2023/05/22 03:37:14;;;;;;;30.75;27.30;;;;;;;;;;5052035;28;20211;-65
2023/05/22 03:39:40;;;;;;;29.75;26.55;;;;;;;;;;5052300;28;20245;-65
2023/05/22 03:42:05;;;;;;;33.90;27.55;;;;;;;;;;5050950;28;20683;-65
2023/05/22 03:44:30;;;;;;;31.80;27.10;;;;;;;;;;5052171;28;20305;-65
2023/05/22 03:46:55;;;;;;;31.70;28.38;;;;;;;;;;5052244;28;20221;-65
2023/05/22 03:49:21;;;;;;;32.38;27.45;;;;;;;;;;5050989;28;20227;-65
2023/05/22 03:51:46;;;;;;;30.95;27.35;;;;;;;;;;5052108;28;20322;-65
2023/05/22 03:54:11;;;;;;;31.45;28.05;;;;;;;;;;5051538;28;20218;-65
2023/05/22 03:56:36;;;;;;;32.17;27.77;;;;;;;;;;5051517;28;20302;-65
2023/05/22 03:59:02;;;;;;;30.83;26.95;;;;;;;;;;5051230;28;20215;-64
2023/05/22 04:01:28;;;;;;;31.25;26.23;;;;;;;;;;5052138;28;20230;-65
2023/05/22 04:03:53;;;;;;;32.35;26.60;;;;;;;;;;5050923;28;20219;-65
2023/05/22 04:06:20;;;;;;;31.48;27.98;;;;;;;;;;5051267;28;20214;-65
2023/05/22 04:08:46;;;;;;;31.95;26.88;;;;;;;;;;5051071;28;20223;-65
2023/05/22 04:11:14;;;;;;;34.30;27.75;;;;;;;;;;5051352;28;20223;-65
2023/05/22 04:13:39;;;;;;;30.73;27.15;;;;;;;;;;5051457;28;20203;-65
2023/05/22 04:16:05;;;;;;;30.08;26.83;;;;;;;;;;5050481;28;20248;-65
2023/05/22 04:18:30;;;;;;;28.90;25.77;;;;;;;;;;5051240;28;20230;-65
2023/05/22 04:20:56;;;;;;;29.70;25.65;;;;;;;;;;5032573;28;20222;-66
2023/05/22 04:23:21;;;;;;;32.60;26.13;;;;;;;;;;5037983;28;20250;-65
2023/05/22 04:25:47;;;;;;;32.20;26.88;;;;;;;;;;5034998;28;20222;-65
2023/05/22 04:28:12;;;;;;;33.08;25.08;;;;;;;;;;5037827;28;20222;-65
2023/05/22 04:30:38;;;;;;;30.05;26.02;;;;;;;;;;5032391;28;20223;-65
2023/05/22 04:33:04;;;;;;;29.98;26.70;;;;;;;;;;5033872;28;20225;-65
2023/05/22 04:35:29;;;;;;;29.27;24.30;;;;;;;;;;5037407;28;20211;-65
2023/05/22 04:38:00;;;;;;;33.45;26.05;;;;;;;;;;5039133;28;20215;-65
2023/05/22 04:40:28;;;;;;;29.08;25.35;;;;;;;;;;5031023;28;20292;-65
2023/05/22 04:42:53;;;;;;;32.15;26.00;;;;;;;;;;5041053;28;20218;-65
2023/05/22 04:45:20;;;;;;;28.20;24.70;;;;;;;;;;5039666;28;20214;-65
2023/05/22 04:47:45;;;;;;;27.75;24.48;;;;;;;;;;5041384;28;20222;-65
2023/05/22 04:50:10;;;;;;;27.98;23.42;;;;;;;;;;5032595;28;20208;-66
2023/05/22 04:52:36;;;;;;;30.35;25.10;;;;;;;;;;5031708;28;20293;-65
2023/05/22 04:55:01;;;;;;;28.23;24.23;;;;;;;;;;5025811;28;20211;-64
2023/05/22 04:57:26;;;;;;;27.83;23.52;;;;;;;;;;5033767;28;20678;-65
2023/05/22 04:59:52;;;;;;;27.52;23.20;;;;;;;;;;5038785;28;20218;-65
2023/05/22 05:02:17;;;;;;;31.13;24.63;;;;;;;;;;5040630;28;20229;-65
2023/05/22 05:04:43;;;;;;;27.55;23.80;;;;;;;;;;5040628;28;20223;-65
2023/05/22 05:07:08;;;;;;;29.05;25.60;;;;;;;;;;5039391;28;20229;-64
2023/05/22 05:09:33;;;;;;;27.55;24.08;;;;;;;;;;5038750;28;20215;-64
2023/05/22 05:11:58;;;;;;;27.15;24.05;;;;;;;;;;5020556;28;20273;-65
2023/05/22 05:14:24;;;;;;;27.88;23.52;;;;;;;;;;5015236;28;20220;-65
2023/05/22 05:16:52;;;;;;;30.35;23.73;;;;;;;;;;5013397;28;20261;-65
2023/05/22 05:19:20;;;;;;;28.17;25.13;;;;;;;;;;5020105;28;20251;-64
2023/05/22 05:21:46;;;;;;;29.92;25.75;;;;;;;;;;5039740;28;20320;-65
2023/05/22 05:24:11;;;;;;;31.90;26.75;;;;;;;;;;5028451;28;20232;-64
2023/05/22 05:26:37;;;;;;;29.40;25.08;;;;;;;;;;5020260;28;20624;-65
2023/05/22 05:29:02;;;;;;;31.05;25.58;;;;;;;;;;5031409;28;20226;-64
2023/05/22 05:31:27;;;;;;;28.25;25.08;;;;;;;;;;5039914;28;20714;-65
2023/05/22 05:33:55;;;;;;;26.15;22.98;;;;;;;;;;5036365;28;20227;-65
2023/05/22 05:36:20;;;;;;;24.80;22.23;;;;;;;;;;5035548;28;20218;-65
2023/05/22 05:38:46;;;;;;;23.67;20.52;;;;;;;;;;5024211;28;20208;-65
2023/05/22 05:41:11;;;;;;;24.83;21.00;;;;;;;;;;5011102;28;20369;-64
2023/05/22 05:43:36;;;;;;;24.23;20.90;;;;;;;;;;5017723;28;20212;-65
2023/05/22 05:46:01;;;;;;;27.80;21.35;;;;;;;;;;5019943;28;20617;-64
2023/05/22 05:48:27;;;;;;;22.73;20.38;;;;;;;;;;5020318;28;20224;-65
2023/05/22 05:50:52;;;;;;;23.15;20.50;;;;;;;;;;5031301;28;20227;-65
2023/05/22 05:53:18;;;;;;;23.27;20.75;;;;;;;;;;5037062;28;20237;-64
2023/05/22 05:55:43;;;;;;;23.25;20.73;;;;;;;;;;5038033;28;20602;-65
2023/05/22 05:58:08;;;;;;;26.15;20.77;;;;;;;;;;5034702;28;20218;-65
2023/05/22 06:00:33;;;;;;;22.90;19.95;;;;;;;;;;5033165;28;20215;-65
2023/05/22 06:02:59;;;;;;;23.50;20.08;;;;;;;;;;5031685;28;20733;-65
2023/05/22 06:05:25;;;;;;;19.17;17.13;;;;;;;;;;5034030;28;20253;-64
2023/05/22 06:07:51;;;;;;;18.27;16.30;;;;;;;;;;5039680;28;20735;-65
2023/05/22 06:10:16;;;;;;;19.50;16.73;;;;;;;;;;5032938;28;20223;-65
2023/05/22 06:12:41;;;;;;;20.13;18.13;;;;;;;;;;5032138;28;20235;-65
2023/05/22 06:15:07;;;;;;;18.55;16.65;;;;;;;;;;5020572;28;20220;-64
2023/05/22 06:17:33;;;;;;;18.80;16.23;;;;;;;;;;5019655;28;20683;-65
2023/05/22 06:19:58;;;;;;;18.70;16.85;;;;;;;;;;5019917;28;20318;-64
2023/05/22 06:22:24;;;;;;;18.95;16.95;;;;;;;;;;5013088;28;20230;-66
2023/05/22 06:24:55;;;;;;;20.52;17.50;;;;;;;;;;5027001;28;20288;-66
2023/05/22 06:27:23;;;;;;;19.48;16.52;;;;;;;;;;5032317;28;20279;-64
2023/05/22 06:29:48;;;;;;;17.10;15.43;;;;;;;;;;5026942;28;20437;-64
2023/05/22 06:32:14;;;;;;;17.02;15.32;;;;;;;;;;5026451;28;20227;-64
2023/05/22 06:34:39;;;;;;;15.48;13.88;;;;;;;;;;5020211;28;20208;-63
2023/05/22 06:37:04;;;;;;;16.77;15.10;;;;;;;;;;5019125;28;20219;-63
2023/05/22 06:39:30;;;;;;;16.55;14.38;;;;;;;;;;5020166;28;20227;-64
2023/05/22 06:41:55;;;;;;;17.25;14.60;;;;;;;;;;5020343;28;20303;-64
2023/05/22 06:44:20;;;;;;;17.60;15.40;;;;;;;;;;5014647;28;20203;-64
2023/05/22 06:46:46;;;;;;;18.38;14.88;;;;;;;;;;5011948;28;20228;-64
2023/05/22 06:49:11;;;;;;;15.75;14.15;;;;;;;;;;5012062;28;20270;-63
2023/05/22 06:51:36;;;;;;;16.48;14.85;;;;;;;;;;5016879;28;20250;-64
2023/05/22 06:54:05;;;;;;;16.65;14.40;;;;;;;;;;5023003;28;20218;-65
2023/05/22 06:56:30;;;;;;;15.57;14.02;;;;;;;;;;5043015;28;20211;-65
2023/05/22 06:58:56;;;;;;;16.92;15.23;;;;;;;;;;5042663;28;20214;-67
2023/05/22 07:01:22;;;;;;;16.80;15.00;;;;;;;;;;5041801;28;20555;-67
2023/05/22 07:03:47;;;;;;;16.27;14.68;;;;;;;;;;5063500;28;20218;-68
2023/05/22 07:06:12;;;;;;;18.08;16.15;;;;;;;;;;5061117;28;20215;-67
2023/05/22 07:08:37;;;;;;;17.05;15.40;;;;;;;;;;5063735;28;20231;-67
2023/05/22 07:11:05;;;;;;;16.40;14.70;;;;;;;;;;5060933;28;20736;-65
2023/05/22 07:13:31;;;;;;;17.95;15.20;;;;;;;;;;5061568;28;20221;-68
2023/05/22 07:15:56;;;;;;;18.67;15.57;;;;;;;;;;5061369;28;20207;-68
2023/05/22 07:18:21;;;;;;;19.17;16.23;;;;;;;;;;5060494;28;20230;-68
2023/05/22 07:20:46;;;;;;;17.58;15.77;;;;;;;;;;5059908;28;20620;-67
2023/05/22 07:23:12;;;;;;;17.73;15.77;;;;;;;;;;5068822;28;20207;-67
2023/05/22 07:25:37;;;;;;;17.98;16.17;;;;;;;;;;5061165;28;20287;-67
2023/05/22 07:28:07;;;;;;;16.42;14.73;;;;;;;;;;5062062;28;20229;-67
2023/05/22 07:30:33;;;;;;;16.92;15.10;;;;;;;;;;5061924;28;20793;-67
2023/05/22 07:32:58;;;;;;;16.58;14.98;;;;;;;;;;5060361;28;20207;-67
2023/05/22 07:35:24;;;;;;;20.08;15.55;;;;;;;;;;5055060;28;20207;-69
2023/05/22 07:37:49;;;;;;;16.13;14.43;;;;;;;;;;5069176;28;20240;-68
2023/05/22 07:40:14;;;;;;;16.63;15.02;;;;;;;;;;5061493;28;20260;-67
2023/05/22 07:42:40;;;;;;;17.65;15.82;;;;;;;;;;5069075;28;20701;-67
2023/05/22 07:45:06;;;;;;;16.67;14.90;;;;;;;;;;5061498;28;20206;-66
2023/05/22 07:47:31;;;;;;;17.15;14.20;;;;;;;;;;5059113;28;20234;-68
2023/05/22 07:49:56;;;;;;;16.60;14.85;;;;;;;;;;5057416;28;20207;-66
2023/05/22 07:52:22;;;;;;;17.67;14.85;;;;;;;;;;5051540;28;20223;-66
2023/05/22 07:54:47;;;;;;;17.95;16.17;;;;;;;;;;5051107;28;20222;-67
2023/05/22 07:57:14;;;;;;;16.52;14.82;;;;;;;;;;5051630;28;20215;-67
2023/05/22 07:59:42;;;;;;;18.25;16.35;;;;;;;;;;5051918;28;20210;-65
2023/05/22 08:02:08;;;;;;;19.90;16.15;;;;;;;;;;5044226;28;20204;-65
2023/05/22 08:04:34;;;;;;;16.58;14.88;;;;;;;;;;5050662;28;20680;-66
2023/05/22 08:07:00;;;;;;;17.67;15.27;;;;;;;;;;5051759;28;20302;-67
2023/05/22 08:09:25;;;;;;;16.17;14.57;;;;;;;;;;5050485;28;20246;-71
2023/05/22 08:11:50;;;;;;;16.88;15.27;;;;;;;;;;5051594;28;20250;-66
2023/05/22 08:14:16;;;;;;;16.70;13.95;;;;;;;;;;5055902;28;20290;-65
2023/05/22 08:16:41;;;;;;;16.80;15.10;;;;;;;;;;5056881;28;20577;-66
2023/05/22 08:19:06;;;;;;;15.73;14.05;;;;;;;;;;5063101;28;20276;-66
2023/05/22 08:21:33;;;;;;;16.30;13.90;;;;;;;;;;5052441;28;20298;-64
2023/05/22 08:23:59;;;;;;;14.55;13.05;;;;;;;;;;5035990;28;20216;-64
2023/05/22 08:26:25;;;;;;;15.82;12.98;;;;;;;;;;5040319;28;20266;-64
2023/05/22 08:28:51;;;;;;;14.43;12.25;;;;;;;;;;5045145;28;20694;-65
2023/05/22 08:31:16;;;;;;;14.63;13.13;;;;;;;;;;5057839;28;20211;-64
2023/05/22 08:33:41;;;;;;;14.80;13.13;;;;;;;;;;5051358;28;20292;-64
2023/05/22 08:36:06;;;;;;;16.10;12.85;;;;;;;;;;5050098;28;20231;-64
2023/05/22 08:38:32;;;;;;;14.60;11.95;;;;;;;;;;5051256;28;20239;-64
2023/05/22 08:40:57;;;;;;;12.68;11.35;;;;;;;;;;5051193;28;20207;-64
2023/05/22 08:43:23;;;;;;;15.25;11.45;;;;;;;;;;5050034;28;20215;-64
2023/05/22 08:45:54;;;;;;;13.15;11.70;;;;;;;;;;5050898;28;20250;-65
2023/05/22 08:48:21;;;;;;;14.82;11.75;;;;;;;;;;5050677;28;20219;-64
2023/05/22 08:50:46;;;;;;;14.60;12.90;;;;;;;;;;5048666;28;20207;-64
2023/05/22 08:53:12;;;;;;;14.32;12.57;;;;;;;;;;5055671;28;20263;-65
2023/05/22 08:55:37;;;;;;;16.08;12.90;;;;;;;;;;5043224;28;20215;-63
2023/05/22 08:58:02;;;;;;;14.98;12.50;;;;;;;;;;5027778;28;20231;-64
2023/05/22 09:00:29;;;;;;;13.00;11.60;;;;;;;;;;5028518;28;20842;-64
2023/05/22 09:02:54;;;;;;;15.57;13.05;;;;;;;;;;5028567;28;20802;-65
2023/05/22 09:05:20;;;;;;;15.05;12.77;;;;;;;;;;5026112;28;25926;-64
2023/05/22 09:07:47;;;;;;;15.68;14.05;;;;;;;;;;5029239;28;20261;-64
2023/05/22 09:10:12;;;;;;;14.20;12.65;;;;;;;;;;5029443;28;20307;-64
2023/05/22 09:12:38;;;;;;;14.75;12.95;;;;;;;;;;5036517;28;20372;-64
2023/05/22 09:15:09;;;;;;;16.42;14.50;;;;;;;;;;5048579;28;20215;-64
2023/05/22 09:17:37;;;;;;;15.57;13.73;;;;;;;;;;5050227;28;20234;-64
2023/05/22 09:20:03;;;;;;;16.38;14.05;;;;;;;;;;5049213;28;20866;-64
2023/05/22 09:22:37;;;;;;;16.92;14.55;;;;;;;;;;5050465;28;20268;-64
2023/05/22 09:25:03;;;;;;;18.25;14.35;;;;;;;;;;5049746;28;20210;-64
2023/05/22 09:27:28;;;;;;;16.00;13.90;;;;;;;;;;5049661;28;20217;-64
2023/05/22 09:29:55;;;;;;;16.55;12.65;;;;;;;;;;5050295;28;20248;-64
2023/05/22 09:32:20;;;;;;;13.63;11.10;;;;;;;;;;5048884;28;20315;-64
2023/05/22 09:34:46;;;;;;;16.48;14.25;;;;;;;;;;5050315;28;20294;-64
2023/05/22 09:37:13;;;;;;;16.55;12.75;;;;;;;;;;5049824;28;20678;-64
2023/05/22 09:39:40;;;;;;;13.23;11.18;;;;;;;;;;5049273;28;20211;-64
2023/05/22 09:42:06;;;;;;;13.30;11.30;;;;;;;;;;5049792;28;20272;-63
2023/05/22 09:44:31;;;;;;;12.80;11.50;;;;;;;;;;5050314;28;20245;-64
2023/05/22 09:46:57;;;;;;;14.23;10.82;;;;;;;;;;5049199;28;20211;-64
2023/05/22 09:49:22;;;;;;;14.98;13.48;;;;;;;;;;5049417;28;20227;-64
2023/05/22 09:51:47;;;;;;;17.73;13.88;;;;;;;;;;5049900;28;20226;-64
2023/05/22 09:54:13;;;;;;;13.80;11.20;;;;;;;;;;5047544;28;20211;-64
2023/05/22 09:56:38;;;;;;;14.57;11.95;;;;;;;;;;5048787;28;20234;-64
2023/05/22 09:59:08;;;;;;;13.80;11.65;;;;;;;;;;5049597;28;20213;-64
2023/05/22 10:01:33;;;;;;;15.98;11.80;;;;;;;;;;5049152;28;20211;-64
2023/05/22 10:03:58;;;;;;;11.68;10.48;;;;;;;;;;5048640;28;20752;-64
2023/05/22 10:06:23;;;;;;;12.63;11.32;;;;;;;;;;5048181;28;20242;-64
2023/05/22 10:08:54;;;;;;;13.05;10.63;;;;;;;;;;5049285;28;20218;-64
2023/05/22 10:11:20;;;;;;;12.90;10.20;;;;;;;;;;5049042;28;20326;-64
2023/05/22 10:13:46;;;;;;;11.82;10.63;;;;;;;;;;5049805;28;20893;-63
2023/05/22 10:16:12;;;;;;;13.73;10.85;;;;;;;;;;5029735;28;20220;-63
2023/05/22 10:18:37;;;;;;;14.65;11.35;;;;;;;;;;5049506;28;20277;-64
2023/05/22 10:21:03;;;;;;;12.45;10.85;;;;;;;;;;5047800;28;20740;-64
2023/05/22 10:23:28;;;;;;;12.77;9.88;;;;;;;;;;5048803;28;20292;-64
2023/05/22 10:25:53;;;;;;;10.60;9.50;;;;;;;;;;5049452;28;20222;-64
2023/05/22 10:28:29;;;;;;;11.57;9.50;;;;;;;;;;5051304;28;20215;-64
2023/05/22 10:31:18;;;;;;;12.30;9.93;;;;;;;;;;5053213;28;20211;-64
2023/05/22 10:33:45;;;;;;;13.50;10.90;;;;;;;;;;5045101;28;20281;-64
2023/05/22 10:36:24;;;;;;;13.38;11.98;;;;;;;;;;5051625;28;20687;-64
2023/05/22 10:38:56;;;;;;;14.32;12.77;;;;;;;;;;5052006;28;20689;-64
2023/05/22 10:41:21;;;;;;;15.60;12.85;;;;;;;;;;5052718;28;20244;-64
2023/05/22 10:43:50;;;;;;;12.70;11.40;;;;;;;;;;5051418;28;20231;-64
2023/05/22 10:46:15;;;;;;;12.50;10.85;;;;;;;;;;5052785;28;20211;-64
2023/05/22 10:48:44;;;;;;;12.25;11.02;;;;;;;;;;5053149;28;20552;-64
2023/05/22 10:51:11;;;;;;;13.70;11.60;;;;;;;;;;5058082;28;20226;-64
2023/05/22 10:53:36;;;;;;;13.75;10.82;;;;;;;;;;5047161;28;20743;-64
2023/05/22 10:56:08;;;;;;;13.07;11.50;;;;;;;;;;5052478;28;20291;-63
2023/05/22 10:58:37;;;;;;;10.82;9.73;;;;;;;;;;5052471;28;20306;-64
2023/05/22 11:01:12;;;;;;;13.57;9.55;;;;;;;;;;5054235;28;20855;-63
2023/05/22 11:03:50;;;;;;;11.95;10.00;;;;;;;;;;5069644;28;20250;-64
2023/05/22 11:06:34;;;;;;;12.90;10.70;;;;;;;;;;5072459;28;20226;-64
2023/05/22 11:09:00;;;;;;;12.55;10.73;;;;;;;;;;5072719;28;20249;-64
2023/05/22 11:11:26;;;;;;;12.05;9.73;;;;;;;;;;5048138;28;20729;-63
2023/05/22 11:13:52;;;;;;;11.73;9.68;;;;;;;;;;5055611;28;20214;-63
2023/05/22 11:16:17;;;;;;;12.82;9.82;;;;;;;;;;5055147;28;20305;-64
2023/05/22 11:18:43;;;;;;;11.55;9.93;;;;;;;;;;5051719;28;20223;-64
2023/05/22 11:21:08;;;;;;;11.55;9.25;;;;;;;;;;5052315;28;20227;-64
2023/05/22 11:23:35;;;;;;;11.00;9.35;;;;;;;;;;5052142;28;20223;-63
2023/05/22 11:26:15;;;;;;;11.05;9.82;;;;;;;;;;5050523;28;20211;-64
2023/05/22 11:28:41;;;;;;;11.48;9.48;;;;;;;;;;5052059;28;20211;-64
2023/05/22 11:31:06;;;;;;;13.27;10.52;;;;;;;;;;5050710;28;20226;-63
2023/05/22 11:33:31;;;;;;;10.55;9.15;;;;;;;;;;5051941;28;20748;-63
2023/05/22 11:35:57;;;;;;;15.68;10.20;;;;;;;;;;5052576;28;20302;-63
2023/05/22 11:38:22;;;;;;;9.63;8.63;;;;;;;;;;5051567;28;20640;-63
2023/05/22 11:40:50;;;;;;;11.45;9.82;;;;;;;;;;5050377;28;20203;-63
2023/05/22 11:43:18;;;;;;;10.98;9.80;;;;;;;;;;5051819;28;20211;-63
2023/05/22 11:45:44;;;;;;;12.32;10.27;;;;;;;;;;5050938;28;20210;-63
2023/05/22 11:48:10;;;;;;;11.82;9.52;;;;;;;;;;5051483;28;20230;-63
2023/05/22 11:50:35;;;;;;;13.68;11.10;;;;;;;;;;5052174;28;20218;-63
2023/05/22 11:53:02;;;;;;;11.50;10.30;;;;;;;;;;5049532;28;20231;-63
2023/05/22 11:55:27;;;;;;;11.93;9.93;;;;;;;;;;5050312;28;20357;-63
2023/05/22 11:57:53;;;;;;;13.70;10.32;;;;;;;;;;5052105;28;20949;-63
2023/05/22 12:00:19;;;;;;;13.00;10.13;;;;;;;;;;5053258;28;20215;-63
2023/05/22 12:02:45;;;;;;;10.82;9.48;;;;;;;;;;5072211;28;20214;-63
2023/05/22 12:05:11;;;;;;;12.07;10.15;;;;;;;;;;5068133;28;20211;-63
2023/05/22 12:07:36;;;;;;;12.80;10.32;;;;;;;;;;5050935;28;20222;-63
2023/05/22 12:10:03;;;;;;;11.57;10.43;;;;;;;;;;5051340;28;20265;-63
2023/05/22 12:12:28;;;;;;;11.57;9.95;;;;;;;;;;5050492;28;20227;-63
2023/05/22 12:14:53;;;;;;;12.93;10.57;;;;;;;;;;5050714;28;20622;-63
2023/05/22 12:17:18;;;;;;;11.35;10.15;;;;;;;;;;5059483;28;20217;-63
2023/05/22 12:19:45;;;;;;;12.85;10.82;;;;;;;;;;5051532;28;20223;-63
2023/05/22 12:22:11;;;;;;;16.17;10.52;;;;;;;;;;5050230;28;20253;-63
2023/05/22 12:24:37;;;;;;;12.55;10.45;;;;;;;;;;5051688;28;20237;-63
2023/05/22 12:27:02;;;;;;;14.38;10.82;;;;;;;;;;5051007;28;20260;-62
2023/05/22 12:29:27;;;;;;;13.85;10.30;;;;;;;;;;5049050;28;20203;-63
2023/05/22 12:31:53;;;;;;;12.48;9.73;;;;;;;;;;5066359;28;20313;-63
2023/05/22 12:34:18;;;;;;;10.77;9.68;;;;;;;;;;5070749;28;20241;-63
2023/05/22 12:36:44;;;;;;;11.25;9.82;;;;;;;;;;5070479;28;20264;-62
2023/05/22 12:39:18;;;;;;;11.93;10.45;;;;;;;;;;5070933;28;20207;-62
2023/05/22 12:41:44;;;;;;;11.48;9.77;;;;;;;;;;5070931;28;20755;-62
2023/05/22 12:44:09;;;;;;;11.68;10.50;;;;;;;;;;5063115;28;20219;-63
2023/05/22 12:46:35;;;;;;;12.02;10.70;;;;;;;;;;5056432;28;20207;-62
2023/05/22 12:49:00;;;;;;;11.88;10.23;;;;;;;;;;5049903;28;20214;-63
2023/05/22 12:51:26;;;;;;;13.27;10.80;;;;;;;;;;5047489;28;20220;-64
2023/05/22 12:53:51;;;;;;;14.75;10.45;;;;;;;;;;5050223;28;20670;-64
2023/05/22 12:56:16;;;;;;;10.90;9.77;;;;;;;;;;5049539;28;20348;-64
2023/05/22 12:58:42;;;;;;;12.55;10.73;;;;;;;;;;5050840;28;20211;-65
2023/05/22 13:01:07;;;;;;;12.60;11.13;;;;;;;;;;5059514;28;20301;-65
2023/05/22 13:03:33;;;;;;;11.80;10.32;;;;;;;;;;5070134;28;20214;-66
2023/05/22 13:05:58;;;;;;;13.93;10.93;;;;;;;;;;5070248;28;20215;-66
2023/05/22 13:08:24;;;;;;;13.35;10.68;;;;;;;;;;5070302;28;20206;-66
2023/05/22 13:10:49;;;;;;;12.45;11.20;;;;;;;;;;5069781;28;20219;-65
2023/05/22 13:13:14;;;;;;;11.02;9.88;;;;;;;;;;5052870;28;20785;-65
2023/05/22 13:15:40;;;;;;;12.45;10.73;;;;;;;;;;5050584;28;20222;-65
2023/05/22 13:18:05;;;;;;;13.77;10.50;;;;;;;;;;5049051;28;20218;-65
2023/05/22 13:20:30;;;;;;;13.73;11.52;;;;;;;;;;5050468;28;20211;-65
2023/05/22 13:22:55;;;;;;;13.18;10.55;;;;;;;;;;5050453;28;20268;-65
2023/05/22 13:25:21;;;;;;;12.13;10.38;;;;;;;;;;5049458;28;20199;-65
2023/05/22 13:27:46;;;;;;;13.18;10.73;;;;;;;;;;5050367;28;20219;-65
2023/05/22 13:30:11;;;;;;;12.45;11.25;;;;;;;;;;5049776;28;20640;-65
2023/05/22 13:32:37;;;;;;;13.15;11.80;;;;;;;;;;5049574;28;20689;-65
2023/05/22 13:35:02;;;;;;;12.32;11.13;;;;;;;;;;5050001;28;20225;-65
2023/05/22 13:37:27;;;;;;;15.00;11.50;;;;;;;;;;5050027;28;20218;-65
2023/05/22 13:39:52;;;;;;;14.38;12.18;;;;;;;;;;5049545;28;20275;-65
2023/05/22 13:42:18;;;;;;;13.65;11.65;;;;;;;;;;5049513;28;20211;-65
2023/05/22 13:44:43;;;;;;;15.48;12.63;;;;;;;;;;5048835;28;20239;-65
2023/05/22 13:47:08;;;;;;;12.82;11.23;;;;;;;;;;5048985;28;20268;-64
2023/05/22 13:49:34;;;;;;;13.98;12.15;;;;;;;;;;5050361;28;20215;-65
2023/05/22 13:51:59;;;;;;;14.15;12.68;;;;;;;;;;5049675;28;20234;-63
2023/05/22 13:54:24;;;;;;;13.40;12.00;;;;;;;;;;5049124;28;20402;-64
2023/05/22 13:56:49;;;;;;;13.23;11.75;;;;;;;;;;5046506;28;20207;-64
2023/05/22 13:59:15;;;;;;;14.55;11.77;;;;;;;;;;5028003;28;20215;-64
2023/05/22 14:01:40;;;;;;;14.73;12.55;;;;;;;;;;5019935;28;20222;-64
2023/05/22 14:04:05;;;;;;;14.27;12.85;;;;;;;;;;5037368;28;20307;-64
2023/05/22 14:06:30;;;;;;;13.20;11.90;;;;;;;;;;5034583;28;20219;-64
2023/05/22 14:08:56;;;;;;;15.85;12.00;;;;;;;;;;5042115;28;20610;-64
2023/05/22 14:11:21;;;;;;;13.93;12.35;;;;;;;;;;5028260;28;20227;-64